sensor_id;sensor_type;location;lat;lon;timestamp;pressure;altitude;pressure_sealevel;temperature;humidity
31062;BME280;17724;53.546;9.974;2023-11-19T00:02:53;100882.66;;;5.64;100.00
31062;BME280;17724;53.546;9.974;2023-11-19T00:06:54;100883.38;;;5.53;100.00
31062;BME280;17724;53.546;9.974;2023-11-19T00:10:55;100856.66;;;5.61;100.00
31062;BME280;17724;53.546;9.974;2023-11-19T00:14:55;100852.41;;;5.65;100.00
31062;BME280;17724;53.546;9.974;2023-11-19T00:18:56;100842.19;;;5.61;100.00
31062;BME280;17724;53.546;9.974;2023-11-19T00:22:56;100833.03;;;5.74;100.00
31062;BME280;17724;53.546;9.974;2023-11-19T00:26:57;100827.28;;;5.82;100.00
31062;BME280;17724;53.546;9.974;2023-11-19T00:30:58;100819.28;;;5.62;100.00
31062;BME280;17724;53.546;9.974;2023-11-19T00:34:59;100813.88;;;5.80;100.00
31062;BME280;17724;53.546;9.974;2023-11-19T00:38:59;100808.94;;;5.89;100.00
31062;BME280;17724;53.546;9.974;2023-11-19T00:43:00;100783.38;;;5.65;100.00
31062;BME280;17724;53.546;9.974;2023-11-19T00:47:00;100782.78;;;5.81;100.00
31062;BME280;17724;53.546;9.974;2023-11-19T00:51:01;100766.03;;;5.78;100.00
31062;BME280;17724;53.546;9.974;2023-11-19T00:55:01;100777.56;;;5.80;100.00
31062;BME280;17724;53.546;9.974;2023-11-19T00:59:01;100752.00;;;5.74;100.00
31062;BME280;17724;53.546;9.974;2023-11-19T01:03:02;100727.00;;;5.59;100.00
31062;BME280;17724;53.546;9.974;2023-11-19T01:07:03;100713.19;;;5.72;100.00
31062;BME280;17724;53.546;9.974;2023-11-19T01:11:06;100705.72;;;5.67;100.00
31062;BME280;17724;53.546;9.974;2023-11-19T01:15:07;100707.16;;;5.52;100.00
31062;BME280;17724;53.546;9.974;2023-11-19T01:19:08;100675.59;;;5.74;100.00
31062;BME280;17724;53.546;9.974;2023-11-19T01:23:09;100675.00;;;5.72;100.00
31062;BME280;17724;53.546;9.974;2023-11-19T01:27:09;100660.66;;;5.77;100.00
31062;BME280;17724;53.546;9.974;2023-11-19T01:31:11;100653.97;;;5.91;100.00
31062;BME280;17724;53.546;9.974;2023-11-19T01:35:11;100656.88;;;5.78;100.00
31062;BME280;17724;53.546;9.974;2023-11-19T01:39:12;100624.50;;;5.81;100.00
31062;BME280;17724;53.546;9.974;2023-11-19T01:43:30;100621.69;;;5.88;100.00
31062;BME280;17724;53.546;9.974;2023-11-19T01:47:31;100618.72;;;5.89;100.00
31062;BME280;17724;53.546;9.974;2023-11-19T01:51:32;100618.91;;;5.95;100.00
31062;BME280;17724;53.546;9.974;2023-11-19T01:55:32;100617.81;;;5.96;100.00
31062;BME280;17724;53.546;9.974;2023-11-19T01:59:33;100598.78;;;5.89;100.00
31062;BME280;17724;53.546;9.974;2023-11-19T02:03:34;100583.09;;;6.14;100.00
31062;BME280;17724;53.546;9.974;2023-11-19T02:07:35;100579.91;;;5.87;100.00
31062;BME280;17724;53.546;9.974;2023-11-19T02:11:35;100569.66;;;6.01;100.00
31062;BME280;17724;53.546;9.974;2023-11-19T02:15:36;100556.94;;;5.95;100.00
31062;BME280;17724;53.546;9.974;2023-11-19T02:19:36;100561.56;;;5.95;100.00
31062;BME280;17724;53.546;9.974;2023-11-19T02:23:38;100540.56;;;5.95;100.00
31062;BME280;17724;53.546;9.974;2023-11-19T02:27:52;100536.78;;;5.96;100.00
31062;BME280;17724;53.546;9.974;2023-11-19T02:31:55;100526.69;;;5.97;100.00
31062;BME280;17724;53.546;9.974;2023-11-19T02:35:56;100516.38;;;5.99;100.00
31062;BME280;17724;53.546;9.974;2023-11-19T02:39:57;100504.25;;;6.06;100.00
31062;BME280;17724;53.546;9.974;2023-11-19T02:44:01;100516.13;;;6.12;100.00
31062;BME280;17724;53.546;9.974;2023-11-19T02:48:01;100482.06;;;6.03;100.00
31062;BME280;17724;53.546;9.974;2023-11-19T02:52:03;100480.66;;;6.24;100.00
31062;BME280;17724;53.546;9.974;2023-11-19T02:56:06;100458.09;;;6.05;100.00
31062;BME280;17724;53.546;9.974;2023-11-19T03:00:16;100454.88;;;6.08;100.00
31062;BME280;17724;53.546;9.974;2023-11-19T03:04:18;100455.34;;;6.16;100.00
31062;BME280;17724;53.546;9.974;2023-11-19T03:08:20;100443.81;;;6.26;100.00
31062;BME280;17724;53.546;9.974;2023-11-19T03:12:21;100433.50;;;6.28;100.00
31062;BME280;17724;53.546;9.974;2023-11-19T03:16:21;100428.16;;;6.22;100.00
31062;BME280;17724;53.546;9.974;2023-11-19T03:20:21;100408.53;;;6.48;100.00
31062;BME280;17724;53.546;9.974;2023-11-19T03:24:24;100405.19;;;6.58;100.00
31062;BME280;17724;53.546;9.974;2023-11-19T03:28:25;100394.09;;;6.76;100.00
31062;BME280;17724;53.546;9.974;2023-11-19T03:32:25;100376.50;;;6.72;100.00
31062;BME280;17724;53.546;9.974;2023-11-19T03:36:31;100377.03;;;6.86;100.00
31062;BME280;17724;53.546;9.974;2023-11-19T03:40:33;100387.41;;;6.84;100.00
31062;BME280;17724;53.546;9.974;2023-11-19T03:44:33;100370.69;;;6.97;100.00
31062;BME280;17724;53.546;9.974;2023-11-19T03:48:33;100377.63;;;6.88;100.00
31062;BME280;17724;53.546;9.974;2023-11-19T03:52:35;100371.00;;;6.84;100.00
31062;BME280;17724;53.546;9.974;2023-11-19T03:56:35;100363.34;;;6.69;100.00
31062;BME280;17724;53.546;9.974;2023-11-19T04:00:36;100344.88;;;6.76;100.00
31062;BME280;17724;53.546;9.974;2023-11-19T04:04:36;100350.16;;;6.95;100.00
31062;BME280;17724;53.546;9.974;2023-11-19T04:08:39;100353.94;;;6.94;100.00
31062;BME280;17724;53.546;9.974;2023-11-19T04:12:39;100346.84;;;6.93;100.00
31062;BME280;17724;53.546;9.974;2023-11-19T04:16:40;100338.53;;;6.87;100.00
31062;BME280;17724;53.546;9.974;2023-11-19T04:20:41;100328.16;;;6.73;100.00
31062;BME280;17724;53.546;9.974;2023-11-19T04:24:42;100324.94;;;6.76;100.00
31062;BME280;17724;53.546;9.974;2023-11-19T04:28:44;100324.09;;;6.75;100.00
31062;BME280;17724;53.546;9.974;2023-11-19T04:32:45;100315.13;;;6.63;100.00
31062;BME280;17724;53.546;9.974;2023-11-19T04:36:45;100318.81;;;6.85;100.00
31062;BME280;17724;53.546;9.974;2023-11-19T04:40:46;100318.25;;;6.83;100.00
31062;BME280;17724;53.546;9.974;2023-11-19T04:44:46;100303.09;;;6.93;100.00
31062;BME280;17724;53.546;9.974;2023-11-19T04:48:47;100304.75;;;6.94;100.00
31062;BME280;17724;53.546;9.974;2023-11-19T04:52:47;100301.94;;;7.05;100.00
31062;BME280;17724;53.546;9.974;2023-11-19T04:56:48;100298.38;;;7.22;100.00
31062;BME280;17724;53.546;9.974;2023-11-19T05:00:49;100296.66;;;7.32;100.00
31062;BME280;17724;53.546;9.974;2023-11-19T05:04:49;100294.72;;;7.50;100.00
31062;BME280;17724;53.546;9.974;2023-11-19T05:08:49;100285.16;;;7.69;100.00
31062;BME280;17724;53.546;9.974;2023-11-19T05:12:50;100279.72;;;7.91;100.00
31062;BME280;17724;53.546;9.974;2023-11-19T05:16:51;100266.56;;;8.10;100.00
31062;BME280;17724;53.546;9.974;2023-11-19T05:20:52;100262.72;;;8.33;100.00
31062;BME280;17724;53.546;9.974;2023-11-19T05:24:52;100256.28;;;8.44;100.00
31062;BME280;17724;53.546;9.974;2023-11-19T05:28:53;100255.38;;;8.60;100.00
31062;BME280;17724;53.546;9.974;2023-11-19T05:32:53;100247.34;;;8.81;100.00
31062;BME280;17724;53.546;9.974;2023-11-19T05:36:54;100251.28;;;8.90;100.00
31062;BME280;17724;53.546;9.974;2023-11-19T05:40:54;100248.06;;;8.98;100.00
31062;BME280;17724;53.546;9.974;2023-11-19T05:44:54;100233.97;;;9.22;100.00
31062;BME280;17724;53.546;9.974;2023-11-19T05:48:55;100235.53;;;9.50;100.00
31062;BME280;17724;53.546;9.974;2023-11-19T05:52:55;100230.19;;;9.80;100.00
31062;BME280;17724;53.546;9.974;2023-11-19T05:56:56;100226.75;;;10.05;100.00
31062;BME280;17724;53.546;9.974;2023-11-19T06:00:58;100226.25;;;10.19;100.00
31062;BME280;17724;53.546;9.974;2023-11-19T06:05:01;100226.88;;;10.31;100.00
31062;BME280;17724;53.546;9.974;2023-11-19T06:09:02;100215.34;;;10.39;100.00
31062;BME280;17724;53.546;9.974;2023-11-19T06:13:06;100215.34;;;10.44;100.00
31062;BME280;17724;53.546;9.974;2023-11-19T06:17:07;100226.38;;;10.59;100.00
31062;BME280;17724;53.546;9.974;2023-11-19T06:21:08;100232.69;;;10.65;100.00
31062;BME280;17724;53.546;9.974;2023-11-19T06:25:09;100229.44;;;10.78;100.00
31062;BME280;17724;53.546;9.974;2023-11-19T06:29:09;100231.63;;;10.76;100.00
31062;BME280;17724;53.546;9.974;2023-11-19T06:33:13;100228.31;;;10.79;100.00
31062;BME280;17724;53.546;9.974;2023-11-19T06:37:13;100225.56;;;10.84;100.00
31062;BME280;17724;53.546;9.974;2023-11-19T06:41:13;100231.09;;;10.95;100.00
31062;BME280;17724;53.546;9.974;2023-11-19T06:45:14;100236.06;;;10.98;100.00
31062;BME280;17724;53.546;9.974;2023-11-19T06:49:14;100227.22;;;11.01;100.00
31062;BME280;17724;53.546;9.974;2023-11-19T06:53:15;100225.84;;;11.03;100.00
31062;BME280;17724;53.546;9.974;2023-11-19T06:57:16;100243.75;;;11.06;100.00
31062;BME280;17724;53.546;9.974;2023-11-19T07:01:17;100234.69;;;11.05;100.00
31062;BME280;17724;53.546;9.974;2023-11-19T07:05:18;100237.16;;;11.07;100.00
31062;BME280;17724;53.546;9.974;2023-11-19T07:09:19;100244.03;;;11.09;100.00
31062;BME280;17724;53.546;9.974;2023-11-19T07:13:19;100229.44;;;11.14;100.00
31062;BME280;17724;53.546;9.974;2023-11-19T07:17:21;100245.94;;;11.19;100.00
31062;BME280;17724;53.546;9.974;2023-11-19T07:21:21;100255.03;;;11.15;100.00
31062;BME280;17724;53.546;9.974;2023-11-19T07:25:22;100252.28;;;11.09;100.00
31062;BME280;17724;53.546;9.974;2023-11-19T07:29:22;100243.75;;;11.06;100.00
31062;BME280;17724;53.546;9.974;2023-11-19T07:33:23;100250.91;;;11.02;100.00
31062;BME280;17724;53.546;9.974;2023-11-19T07:37:23;100246.22;;;11.02;100.00
31062;BME280;17724;53.546;9.974;2023-11-19T07:41:24;100253.94;;;11.05;100.00
31062;BME280;17724;53.546;9.974;2023-11-19T07:45:25;100249.25;;;11.06;100.00
31062;BME280;17724;53.546;9.974;2023-11-19T07:49:27;100257.78;;;11.15;100.00
31062;BME280;17724;53.546;9.974;2023-11-19T07:53:28;100255.84;;;11.20;100.00
31062;BME280;17724;53.546;9.974;2023-11-19T07:57:28;100260.81;;;11.18;100.00
31062;BME280;17724;53.546;9.974;2023-11-19T08:01:31;100270.44;;;11.21;100.00
31062;BME280;17724;53.546;9.974;2023-11-19T08:05:31;100279.25;;;11.18;100.00
31062;BME280;17724;53.546;9.974;2023-11-19T08:09:32;100278.69;;;11.16;100.00
31062;BME280;17724;53.546;9.974;2023-11-19T08:13:33;100281.44;;;11.21;100.00
31062;BME280;17724;53.546;9.974;2023-11-19T08:17:33;100278.16;;;11.19;100.00
31062;BME280;17724;53.546;9.974;2023-11-19T08:21:34;100294.38;;;11.20;100.00
31062;BME280;17724;53.546;9.974;2023-11-19T08:25:35;100282.28;;;11.21;100.00
31062;BME280;17724;53.546;9.974;2023-11-19T08:29:35;100289.16;;;11.19;100.00
31062;BME280;17724;53.546;9.974;2023-11-19T08:33:36;100295.50;;;11.19;100.00
31062;BME280;17724;53.546;9.974;2023-11-19T08:37:36;100300.97;;;11.24;100.00
31062;BME280;17724;53.546;9.974;2023-11-19T08:41:38;100307.88;;;11.27;100.00
31062;BME280;17724;53.546;9.974;2023-11-19T08:45:39;100310.34;;;11.28;100.00
31062;BME280;17724;53.546;9.974;2023-11-19T08:49:40;100313.91;;;11.29;100.00
31062;BME280;17724;53.546;9.974;2023-11-19T08:53:40;100312.28;;;11.23;100.00
31062;BME280;17724;53.546;9.974;2023-11-19T08:57:41;100320.53;;;11.28;100.00
31062;BME280;17724;53.546;9.974;2023-11-19T09:01:41;100318.06;;;11.42;100.00
31062;BME280;17724;53.546;9.974;2023-11-19T09:05:42;100321.09;;;11.35;100.00
31062;BME280;17724;53.546;9.974;2023-11-19T09:09:42;100329.34;;;11.40;100.00
31062;BME280;17724;53.546;9.974;2023-11-19T09:13:43;100329.06;;;11.47;100.00
31062;BME280;17724;53.546;9.974;2023-11-19T09:17:45;100333.19;;;11.59;100.00
31062;BME280;17724;53.546;9.974;2023-11-19T09:21:46;100349.97;;;11.53;100.00
31062;BME280;17724;53.546;9.974;2023-11-19T09:25:48;100340.63;;;11.49;100.00
31062;BME280;17724;53.546;9.974;2023-11-19T09:29:48;100353.31;;;11.55;100.00
31062;BME280;17724;53.546;9.974;2023-11-19T09:33:50;100353.00;;;11.56;100.00
31062;BME280;17724;53.546;9.974;2023-11-19T09:37:51;100357.13;;;11.79;100.00
31062;BME280;17724;53.546;9.974;2023-11-19T09:41:52;100346.94;;;11.80;100.00
31062;BME280;17724;53.546;9.974;2023-11-19T09:45:53;100353.28;;;11.80;100.00
31062;BME280;17724;53.546;9.974;2023-11-19T09:49:55;100348.34;;;11.77;100.00
31062;BME280;17724;53.546;9.974;2023-11-19T09:53:55;100345.88;;;11.66;100.00
31062;BME280;17724;53.546;9.974;2023-11-19T09:57:57;100342.03;;;11.62;100.00
31062;BME280;17724;53.546;9.974;2023-11-19T10:02:00;100346.72;;;11.61;100.00
31062;BME280;17724;53.546;9.974;2023-11-19T10:06:01;100348.91;;;11.69;100.00
31062;BME280;17724;53.546;9.974;2023-11-19T10:10:04;100342.28;;;11.70;100.00
31062;BME280;17724;53.546;9.974;2023-11-19T10:14:06;100338.69;;;11.75;100.00
31062;BME280;17724;53.546;9.974;2023-11-19T10:18:06;100348.06;;;11.79;100.00
31062;BME280;17724;53.546;9.974;2023-11-19T10:22:07;100350.28;;;11.77;100.00
31062;BME280;17724;53.546;9.974;2023-11-19T10:26:08;100353.84;;;11.82;100.00
31062;BME280;17724;53.546;9.974;2023-11-19T10:30:10;100349.19;;;11.83;100.00
31062;BME280;17724;53.546;9.974;2023-11-19T10:34:25;100347.50;;;11.72;100.00
31062;BME280;17724;53.546;9.974;2023-11-19T10:38:26;100350.53;;;11.70;100.00
31062;BME280;17724;53.546;9.974;2023-11-19T10:42:27;100366.25;;;11.70;100.00
31062;BME280;17724;53.546;9.974;2023-11-19T10:50:41;100353.03;;;11.77;100.00
31062;BME280;17724;53.546;9.974;2023-11-19T10:54:44;100351.09;;;11.88;100.00
31062;BME280;17724;53.546;9.974;2023-11-19T10:58:45;100354.09;;;11.96;100.00
31062;BME280;17724;53.546;9.974;2023-11-19T11:02:50;100350.81;;;11.99;100.00
31062;BME280;17724;53.546;9.974;2023-11-19T11:06:55;100356.56;;;12.13;100.00
31062;BME280;17724;53.546;9.974;2023-11-19T11:10:59;100365.38;;;12.25;100.00
31062;BME280;17724;53.546;9.974;2023-11-19T11:15:00;100362.34;;;12.12;100.00
31062;BME280;17724;53.546;9.974;2023-11-19T11:19:02;100362.59;;;12.25;100.00
31062;BME280;17724;53.546;9.974;2023-11-19T11:27:32;100365.06;;;12.27;100.00
31062;BME280;17724;53.546;9.974;2023-11-19T11:35:55;100356.81;;;12.22;100.00
31062;BME280;17724;53.546;9.974;2023-11-19T11:40:02;100368.38;;;12.29;100.00
31062;BME280;17724;53.546;9.974;2023-11-19T11:44:10;100373.56;;;12.41;100.00
31062;BME280;17724;53.546;9.974;2023-11-19T11:48:15;100373.25;;;12.52;100.00
31062;BME280;17724;53.546;9.974;2023-11-19T11:52:16;100368.59;;;12.48;100.00
31062;BME280;17724;53.546;9.974;2023-11-19T11:56:17;100360.78;;;12.70;100.00
31062;BME280;17724;53.546;9.974;2023-11-19T12:00:22;100351.59;;;12.80;100.00
31062;BME280;17724;53.546;9.974;2023-11-19T12:04:26;100343.16;;;12.61;100.00
31062;BME280;17724;53.546;9.974;2023-11-19T12:08:28;100350.00;;;12.74;100.00
31062;BME280;17724;53.546;9.974;2023-11-19T12:12:30;100355.19;;;12.86;100.00
31062;BME280;17724;53.546;9.974;2023-11-19T12:16:33;100345.84;;;12.71;100.00
31062;BME280;17724;53.546;9.974;2023-11-19T12:20:38;100361.94;;;12.54;100.00
31062;BME280;17724;53.546;9.974;2023-11-19T12:24:40;100343.69;;;12.63;100.00
31062;BME280;17724;53.546;9.974;2023-11-19T12:28:41;100363.44;;;12.26;100.00
31062;BME280;17724;53.546;9.974;2023-11-19T12:32:45;100361.72;;;12.40;100.00
31062;BME280;17724;53.546;9.974;2023-11-19T12:36:46;100358.78;;;12.06;100.00
31062;BME280;17724;53.546;9.974;2023-11-19T12:40:46;100348.56;;;12.12;100.00
31062;BME280;17724;53.546;9.974;2023-11-19T12:44:55;100355.69;;;12.28;100.00
31062;BME280;17724;53.546;9.974;2023-11-19T12:48:56;100352.09;;;12.38;100.00
31062;BME280;17724;53.546;9.974;2023-11-19T12:52:57;100356.94;;;12.66;100.00
31062;BME280;17724;53.546;9.974;2023-11-19T12:56:58;100339.22;;;12.72;100.00
31062;BME280;17724;53.546;9.974;2023-11-19T13:01:03;100341.19;;;12.67;100.00
31062;BME280;17724;53.546;9.974;2023-11-19T13:05:33;100337.84;;;12.75;100.00
31062;BME280;17724;53.546;9.974;2023-11-19T13:09:34;100340.47;;;12.95;100.00
31062;BME280;17724;53.546;9.974;2023-11-19T13:13:57;100341.81;;;12.53;100.00
31062;BME280;17724;53.546;9.974;2023-11-19T13:17:58;100331.13;;;12.91;100.00
31062;BME280;17724;53.546;9.974;2023-11-19T13:21:59;100334.25;;;12.74;100.00
31062;BME280;17724;53.546;9.974;2023-11-19T13:26:00;100329.56;;;12.75;100.00
31062;BME280;17724;53.546;9.974;2023-11-19T13:30:04;100334.91;;;12.56;100.00
31062;BME280;17724;53.546;9.974;2023-11-19T13:34:07;100335.34;;;12.78;100.00
31062;BME280;17724;53.546;9.974;2023-11-19T13:38:08;100318.81;;;12.73;100.00
31062;BME280;17724;53.546;9.974;2023-11-19T13:42:09;100326.31;;;12.63;100.00
31062;BME280;17724;53.546;9.974;2023-11-19T13:46:10;100330.50;;;12.55;100.00
31062;BME280;17724;53.546;9.974;2023-11-19T13:50:13;100332.72;;;12.53;100.00
31062;BME280;17724;53.546;9.974;2023-11-19T13:54:13;100328.56;;;12.55;100.00
31062;BME280;17724;53.546;9.974;2023-11-19T13:58:14;100314.13;;;12.74;100.00
31062;BME280;17724;53.546;9.974;2023-11-19T14:02:16;100321.13;;;13.00;100.00
31062;BME280;17724;53.546;9.974;2023-11-19T14:06:16;100325.59;;;12.91;100.00
31062;BME280;17724;53.546;9.974;2023-11-19T14:10:17;100315.97;;;12.89;100.00
31062;BME280;17724;53.546;9.974;2023-11-19T14:14:18;100323.72;;;12.87;100.00
31062;BME280;17724;53.546;9.974;2023-11-19T14:18:18;100307.94;;;12.92;100.00
31062;BME280;17724;53.546;9.974;2023-11-19T14:22:19;100327.50;;;13.01;100.00
31062;BME280;17724;53.546;9.974;2023-11-19T14:26:20;100341.38;;;12.86;100.00
31062;BME280;17724;53.546;9.974;2023-11-19T14:30:20;100347.59;;;12.52;100.00
31062;BME280;17724;53.546;9.974;2023-11-19T14:34:21;100355.34;;;12.50;100.00
31062;BME280;17724;53.546;9.974;2023-11-19T14:38:22;100346.72;;;12.67;100.00
31062;BME280;17724;53.546;9.974;2023-11-19T14:42:24;100348.72;;;12.51;100.00
31062;BME280;17724;53.546;9.974;2023-11-19T14:46:25;100324.88;;;12.75;100.00
31062;BME280;17724;53.546;9.974;2023-11-19T14:50:25;100336.69;;;12.86;100.00
31062;BME280;17724;53.546;9.974;2023-11-19T14:54:26;100340.81;;;12.83;100.00
31062;BME280;17724;53.546;9.974;2023-11-19T14:58:26;100346.28;;;12.39;100.00
31062;BME280;17724;53.546;9.974;2023-11-19T15:02:27;100360.56;;;12.51;100.00
31062;BME280;17724;53.546;9.974;2023-11-19T15:06:27;100364.72;;;12.54;100.00
31062;BME280;17724;53.546;9.974;2023-11-19T15:10:28;100389.81;;;12.47;100.00
31062;BME280;17724;53.546;9.974;2023-11-19T15:14:29;100380.28;;;12.84;100.00
31062;BME280;17724;53.546;9.974;2023-11-19T15:18:31;100368.13;;;12.90;100.00
31062;BME280;17724;53.546;9.974;2023-11-19T15:22:32;100376.94;;;12.92;100.00
31062;BME280;17724;53.546;9.974;2023-11-19T15:26:33;100376.13;;;12.87;100.00
31062;BME280;17724;53.546;9.974;2023-11-19T15:30:34;100364.81;;;12.88;100.00
31062;BME280;17724;53.546;9.974;2023-11-19T15:34:35;100379.94;;;12.36;100.00
31062;BME280;17724;53.546;9.974;2023-11-19T15:38:38;100383.78;;;12.45;100.00
31062;BME280;17724;53.546;9.974;2023-11-19T15:42:39;100381.28;;;12.49;100.00
31062;BME280;17724;53.546;9.974;2023-11-19T15:46:40;100388.78;;;12.23;100.00
31062;BME280;17724;53.546;9.974;2023-11-19T15:50:42;100393.38;;;12.58;100.00
31062;BME280;17724;53.546;9.974;2023-11-19T15:54:44;100395.31;;;12.57;100.00
31062;BME280;17724;53.546;9.974;2023-11-19T15:58:47;100402.00;;;12.41;100.00
31062;BME280;17724;53.546;9.974;2023-11-19T16:02:49;100391.72;;;12.52;100.00
31062;BME280;17724;53.546;9.974;2023-11-19T16:06:53;100410.72;;;12.64;100.00
31062;BME280;17724;53.546;9.974;2023-11-19T16:10:54;100404.94;;;12.60;100.00
31062;BME280;17724;53.546;9.974;2023-11-19T16:14:54;100395.44;;;11.81;100.00
31062;BME280;17724;53.546;9.974;2023-11-19T16:18:54;100396.28;;;11.81;100.00
31062;BME280;17724;53.546;9.974;2023-11-19T16:22:55;100403.38;;;12.33;100.00
31062;BME280;17724;53.546;9.974;2023-11-19T16:26:55;100401.94;;;12.51;100.00
31062;BME280;17724;53.546;9.974;2023-11-19T16:30:56;100413.53;;;12.48;100.00
31062;BME280;17724;53.546;9.974;2023-11-19T16:34:56;100413.06;;;12.26;100.00
31062;BME280;17724;53.546;9.974;2023-11-19T16:38:57;100427.69;;;12.06;100.00
31062;BME280;17724;53.546;9.974;2023-11-19T16:42:57;100426.00;;;11.49;100.00
31062;BME280;17724;53.546;9.974;2023-11-19T16:46:58;100429.31;;;11.46;100.00
31062;BME280;17724;53.546;9.974;2023-11-19T16:50:58;100422.97;;;11.50;100.00
31062;BME280;17724;53.546;9.974;2023-11-19T16:54:59;100420.22;;;11.71;100.00
31062;BME280;17724;53.546;9.974;2023-11-19T16:59:01;100411.69;;;11.57;100.00
31062;BME280;17724;53.546;9.974;2023-11-19T17:03:02;100417.47;;;11.71;100.00
31062;BME280;17724;53.546;9.974;2023-11-19T17:07:05;100427.16;;;11.83;100.00
31062;BME280;17724;53.546;9.974;2023-11-19T17:11:05;100423.84;;;11.92;100.00
31062;BME280;17724;53.546;9.974;2023-11-19T17:15:06;100429.31;;;11.71;100.00
31062;BME280;17724;53.546;9.974;2023-11-19T17:19:07;100426.03;;;11.74;100.00
31062;BME280;17724;53.546;9.974;2023-11-19T17:23:08;100442.56;;;11.84;100.00
31062;BME280;17724;53.546;9.974;2023-11-19T17:27:08;100443.09;;;11.61;100.00
31062;BME280;17724;53.546;9.974;2023-11-19T17:31:09;100448.59;;;11.66;100.00
31062;BME280;17724;53.546;9.974;2023-11-19T17:35:09;100442.00;;;11.67;100.00
31062;BME280;17724;53.546;9.974;2023-11-19T17:39:10;100433.44;;;11.69;100.00
31062;BME280;17724;53.546;9.974;2023-11-19T17:43:11;100446.38;;;11.48;100.00
31062;BME280;17724;53.546;9.974;2023-11-19T17:47:11;100445.47;;;11.17;100.00
31062;BME280;17724;53.546;9.974;2023-11-19T17:51:12;100453.72;;;11.17;100.00
31062;BME280;17724;53.546;9.974;2023-11-19T17:55:17;100465.59;;;11.22;100.00
31062;BME280;17724;53.546;9.974;2023-11-19T17:59:17;100458.56;;;10.84;100.00
31062;BME280;17724;53.546;9.974;2023-11-19T18:03:19;100455.03;;;10.94;100.00
31062;BME280;17724;53.546;9.974;2023-11-19T18:07:20;100440.25;;;11.20;100.00
31062;BME280;17724;53.546;9.974;2023-11-19T18:11:21;100439.22;;;11.47;100.00
31062;BME280;17724;53.546;9.974;2023-11-19T18:15:22;100447.72;;;11.40;100.00
31062;BME280;17724;53.546;9.974;2023-11-19T18:19:23;100444.94;;;11.25;100.00
31062;BME280;17724;53.546;9.974;2023-11-19T18:23:23;100448.53;;;11.25;100.00
31062;BME280;17724;53.546;9.974;2023-11-19T18:27:24;100452.69;;;11.33;100.00
31062;BME280;17724;53.546;9.974;2023-11-19T18:31:24;100443.09;;;11.46;100.00
31062;BME280;17724;53.546;9.974;2023-11-19T18:35:25;100444.19;;;11.55;100.00
31062;BME280;17724;53.546;9.974;2023-11-19T18:39:25;100451.91;;;11.58;100.00
31062;BME280;17724;53.546;9.974;2023-11-19T18:43:26;100453.56;;;11.54;100.00
31062;BME280;17724;53.546;9.974;2023-11-19T18:47:26;100449.66;;;11.45;100.00
31062;BME280;17724;53.546;9.974;2023-11-19T18:51:27;100457.94;;;11.60;100.00
31062;BME280;17724;53.546;9.974;2023-11-19T18:55:27;100453.56;;;11.59;100.00
31062;BME280;17724;53.546;9.974;2023-11-19T18:59:29;100452.72;;;11.69;100.00
31062;BME280;17724;53.546;9.974;2023-11-19T19:03:29;100449.69;;;11.80;100.00
31062;BME280;17724;53.546;9.974;2023-11-19T19:07:31;100453.00;;;11.62;100.00
31062;BME280;17724;53.546;9.974;2023-11-19T19:11:31;100453.00;;;11.72;100.00
31062;BME280;17724;53.546;9.974;2023-11-19T19:15:33;100460.44;;;11.67;100.00
31062;BME280;17724;53.546;9.974;2023-11-19T19:19:33;100452.19;;;11.67;100.00
31062;BME280;17724;53.546;9.974;2023-11-19T19:23:34;100452.44;;;11.60;100.00
31062;BME280;17724;53.546;9.974;2023-11-19T19:27:34;100444.75;;;11.72;100.00
31062;BME280;17724;53.546;9.974;2023-11-19T19:31:35;100453.00;;;11.72;100.00
31062;BME280;17724;53.546;9.974;2023-11-19T19:35:36;100443.06;;;11.56;100.00
31062;BME280;17724;53.546;9.974;2023-11-19T19:39:36;100447.50;;;11.62;100.00
31062;BME280;17724;53.546;9.974;2023-11-19T19:43:39;100440.91;;;11.78;100.00
31062;BME280;17724;53.546;9.974;2023-11-19T19:47:40;100439.22;;;11.72;100.00
31062;BME280;17724;53.546;9.974;2023-11-19T19:51:41;100432.63;;;11.63;100.00
31062;BME280;17724;53.546;9.974;2023-11-19T19:55:42;100445.84;;;11.56;100.00
31062;BME280;17724;53.546;9.974;2023-11-19T19:59:43;100447.50;;;11.72;100.00
31062;BME280;17724;53.546;9.974;2023-11-19T20:03:43;100444.75;;;11.77;100.00
31062;BME280;17724;53.546;9.974;2023-11-19T20:07:44;100438.94;;;11.69;100.00
31062;BME280;17724;53.546;9.974;2023-11-19T20:11:45;100451.63;;;11.65;100.00
31062;BME280;17724;53.546;9.974;2023-11-19T20:15:48;100447.78;;;11.66;100.00
31062;BME280;17724;53.546;9.974;2023-11-19T20:19:51;100447.50;;;11.67;100.00
31062;BME280;17724;53.546;9.974;2023-11-19T20:23:51;100430.16;;;11.72;100.00
31062;BME280;17724;53.546;9.974;2023-11-19T20:27:51;100444.19;;;11.55;100.00
31062;BME280;17724;53.546;9.974;2023-11-19T20:31:52;100440.63;;;11.70;100.00
31062;BME280;17724;53.546;9.974;2023-11-19T20:35:53;100448.59;;;11.66;100.00
31062;BME280;17724;53.546;9.974;2023-11-19T20:39:55;100443.06;;;11.51;100.00
31062;BME280;17724;53.546;9.974;2023-11-19T20:43:56;100436.50;;;11.77;100.00
31062;BME280;17724;53.546;9.974;2023-11-19T20:47:56;100441.97;;;11.72;100.00
31062;BME280;17724;53.546;9.974;2023-11-19T20:51:58;100449.47;;;11.87;100.00
31062;BME280;17724;53.546;9.974;2023-11-19T20:55:59;100450.84;;;11.84;100.00
31062;BME280;17724;53.546;9.974;2023-11-19T21:00:01;100448.09;;;11.84;100.00
31062;BME280;17724;53.546;9.974;2023-11-19T21:04:01;100446.13;;;11.70;100.00